createdAt,value
2023-04-28T00:00:33.326Z,9.40
2023-04-28T00:03:00.103Z,9.45
2023-04-28T00:05:26.860Z,3.00
2023-04-28T00:07:53.540Z,3.50
2023-04-28T00:10:20.232Z,3.65
2023-04-28T00:12:46.829Z,4.35
2023-04-28T00:15:13.549Z,5.55
2023-04-28T00:17:45.614Z,3.65
2023-04-28T00:20:12.936Z,6.28
2023-04-28T00:22:41.312Z,5.20
2023-04-28T00:25:08.684Z,3.55
2023-04-28T00:27:35.851Z,7.72
2023-04-28T00:30:03.066Z,7.65
2023-04-28T00:32:29.759Z,4.10
2023-04-28T00:34:57.735Z,3.65
2023-04-28T00:37:24.339Z,7.68
2023-04-28T00:39:56.199Z,4.25
2023-04-28T00:42:23.264Z,6.15
2023-04-28T00:44:53.999Z,4.20
2023-04-28T00:47:20.788Z,3.42
2023-04-28T00:49:49.491Z,5.15
2023-04-28T00:52:16.447Z,6.45
2023-04-28T00:54:43.103Z,4.22
2023-04-28T00:57:10.543Z,7.28
2023-04-28T00:59:37.479Z,3.53
2023-04-28T01:02:04.897Z,4.97
2023-04-28T01:04:31.875Z,3.63
2023-04-28T01:07:00.142Z,7.53
2023-04-28T01:09:26.763Z,6.15
2023-04-28T01:11:53.436Z,3.88
2023-04-28T01:14:20.312Z,7.25
2023-04-28T01:16:47.342Z,6.85
2023-04-28T01:19:23.947Z,4.65
2023-04-28T01:21:51.115Z,7.13
2023-04-28T01:24:18.578Z,4.78
2023-04-28T01:26:46.244Z,5.00
2023-04-28T01:29:13.058Z,7.85
2023-04-28T01:31:39.758Z,5.70
2023-04-28T01:34:06.473Z,7.07
2023-04-28T01:36:35.301Z,3.30
2023-04-28T01:39:04.439Z,7.28
2023-04-28T01:41:31.253Z,5.95
2023-04-28T01:43:57.948Z,5.60
2023-04-28T01:46:24.604Z,5.10
2023-04-28T01:48:51.230Z,3.47
2023-04-28T01:51:17.840Z,4.88
2023-04-28T01:53:44.417Z,4.85
2023-04-28T01:56:11.077Z,4.25
2023-04-28T01:58:37.801Z,4.63
2023-04-28T02:01:04.767Z,4.90
2023-04-28T02:03:31.543Z,6.03
2023-04-28T02:05:59.262Z,3.83
2023-04-28T02:08:26.008Z,5.45
2023-04-28T02:10:52.621Z,5.03
2023-04-28T02:13:19.288Z,7.82
2023-04-28T02:15:46.361Z,9.30
2023-04-28T02:18:13.067Z,5.53
2023-04-28T02:20:42.939Z,8.80
2023-04-28T02:23:10.454Z,3.60
2023-04-28T02:25:37.133Z,5.57
2023-04-28T02:28:04.031Z,4.88
2023-04-28T02:30:32.120Z,5.32
2023-04-28T02:32:58.750Z,6.95
2023-04-28T02:35:25.454Z,7.57
2023-04-28T02:37:52.391Z,5.60
2023-04-28T02:40:19.220Z,6.90
2023-04-28T02:42:46.030Z,8.68
2023-04-28T02:45:12.832Z,6.18
2023-04-28T02:47:39.497Z,4.60
2023-04-28T02:50:07.846Z,8.13
2023-04-28T02:52:34.472Z,9.07
2023-04-28T02:55:01.081Z,5.38
2023-04-28T02:57:27.677Z,4.68
2023-04-28T02:59:54.268Z,6.35
2023-04-28T03:02:22.946Z,6.43
2023-04-28T03:04:49.734Z,7.40
2023-04-28T03:07:16.422Z,8.60
2023-04-28T03:09:43.014Z,7.05
2023-04-28T03:12:09.630Z,5.22
2023-04-28T03:14:36.298Z,6.47
2023-04-28T03:17:02.909Z,5.82
2023-04-28T03:19:29.479Z,7.45
2023-04-28T03:21:56.079Z,6.45
2023-04-28T03:24:22.690Z,10.18
2023-04-28T03:26:49.562Z,8.93
2023-04-28T03:29:16.202Z,6.50
2023-04-28T03:31:42.836Z,6.40
2023-04-28T03:34:09.461Z,5.53
2023-04-28T03:36:36.301Z,6.72
2023-04-28T03:39:02.924Z,5.15
2023-04-28T03:41:29.505Z,9.82
2023-04-28T03:43:56.676Z,7.72
2023-04-28T03:46:23.906Z,5.85
2023-04-28T03:48:50.572Z,7.28
2023-04-28T03:51:17.209Z,9.75
2023-04-28T03:53:43.959Z,8.88
2023-04-28T03:56:10.620Z,4.90
2023-04-28T03:58:37.324Z,6.60
2023-04-28T04:01:04.997Z,19.75
2023-04-28T04:03:32.018Z,10.57
2023-04-28T04:05:59.126Z,8.93
2023-04-28T04:08:25.914Z,6.85
2023-04-28T04:10:52.937Z,6.88
2023-04-28T04:13:19.561Z,6.05
2023-04-28T04:15:46.146Z,6.40
2023-04-28T04:18:13.167Z,7.40
2023-04-28T04:20:39.786Z,7.97
2023-04-28T04:23:06.402Z,6.68
2023-04-28T04:25:33.146Z,5.53
2023-04-28T04:27:59.981Z,4.40
2023-04-28T04:30:26.707Z,9.60
2023-04-28T04:32:53.299Z,6.15
2023-04-28T04:35:20.052Z,6.80
2023-04-28T04:37:46.754Z,10.10
2023-04-28T04:40:13.410Z,8.52
2023-04-28T04:42:40.047Z,7.15
2023-04-28T04:45:07.705Z,5.72
2023-04-28T04:47:34.711Z,10.55
2023-04-28T04:50:01.349Z,6.05
2023-04-28T04:52:28.013Z,8.55
2023-04-28T04:54:56.345Z,6.57
2023-04-28T04:57:23.010Z,5.90
2023-04-28T04:59:49.716Z,6.15
2023-04-28T05:02:17.287Z,9.88
2023-04-28T05:04:44.228Z,11.43
2023-04-28T05:07:10.937Z,10.80
2023-04-28T05:09:37.526Z,9.55
2023-04-28T05:12:04.395Z,10.70
2023-04-28T05:14:31.032Z,12.68
2023-04-28T05:16:57.844Z,14.20
2023-04-28T05:19:24.643Z,11.90
2023-04-28T05:21:53.794Z,9.13
2023-04-28T05:24:24.016Z,9.98
2023-04-28T05:26:51.931Z,9.35
2023-04-28T05:29:18.641Z,13.75
2023-04-28T05:31:45.433Z,11.27
2023-04-28T05:34:12.111Z,11.75
2023-04-28T05:36:39.177Z,12.23
2023-04-28T05:39:05.948Z,10.35
2023-04-28T05:41:32.851Z,9.23
2023-04-28T05:43:59.479Z,10.80
2023-04-28T05:46:30.698Z,13.95
2023-04-28T05:48:58.093Z,9.27
2023-04-28T05:51:24.934Z,11.65
2023-04-28T05:53:51.524Z,13.15
2023-04-28T05:56:18.292Z,9.18
2023-04-28T05:58:45.068Z,12.15
2023-04-28T06:01:11.914Z,11.32
2023-04-28T06:03:41.131Z,13.10
2023-04-28T06:06:10.336Z,11.02
2023-04-28T06:08:38.901Z,13.60
2023-04-28T06:11:06.600Z,12.00
2023-04-28T06:13:33.353Z,9.57
2023-04-28T06:16:00.077Z,14.05
2023-04-28T06:18:27.045Z,11.55
2023-04-28T06:20:53.720Z,10.35
2023-04-28T06:23:20.502Z,10.68
2023-04-28T06:25:47.542Z,12.05
2023-04-28T06:28:14.886Z,9.98
2023-04-28T06:30:41.931Z,10.95
2023-04-28T06:33:08.954Z,12.20
2023-04-28T06:35:38.266Z,8.98
2023-04-28T06:38:06.808Z,9.68
2023-04-28T06:40:33.425Z,12.80
2023-04-28T06:43:00.060Z,8.50
2023-04-28T06:45:26.902Z,11.05
2023-04-28T06:47:55.807Z,10.57
2023-04-28T06:50:23.785Z,12.65
2023-04-28T06:52:50.602Z,10.25
2023-04-28T06:55:17.687Z,10.45
2023-04-28T06:57:44.493Z,10.82
2023-04-28T07:00:12.856Z,7.78
2023-04-28T07:02:39.926Z,14.00
2023-04-28T07:05:07.182Z,11.27
2023-04-28T07:07:34.883Z,10.23
2023-04-28T07:10:02.116Z,12.20
2023-04-28T07:12:28.826Z,13.60
2023-04-28T07:14:56.051Z,19.05
2023-04-28T07:17:22.834Z,10.07
2023-04-28T07:19:52.156Z,8.88
2023-04-28T07:22:18.839Z,11.63
2023-04-28T07:24:45.563Z,11.95
2023-04-28T07:27:12.681Z,9.32
2023-04-28T07:29:39.385Z,8.77
2023-04-28T07:32:10.225Z,10.80
2023-04-28T07:34:37.466Z,9.57
2023-04-28T07:37:05.144Z,9.73
2023-04-28T07:39:34.956Z,12.38
2023-04-28T07:42:02.990Z,9.65
2023-04-28T07:44:30.295Z,11.82
2023-04-28T07:46:57.323Z,11.63
2023-04-28T07:49:23.971Z,11.05
2023-04-28T07:51:53.450Z,12.60
2023-04-28T07:54:20.298Z,13.82
2023-04-28T07:56:47.142Z,12.45
2023-04-28T07:59:14.273Z,13.80
2023-04-28T08:01:41.093Z,11.23
2023-04-28T08:04:08.043Z,11.43
2023-04-28T08:06:36.197Z,10.82
2023-04-28T08:09:05.867Z,11.27
2023-04-28T08:11:33.348Z,14.07
2023-04-28T08:14:03.902Z,11.30
2023-04-28T08:16:31.938Z,12.13
2023-04-28T08:19:00.222Z,8.52
2023-04-28T08:21:27.186Z,12.13
2023-04-28T08:23:53.869Z,12.98
2023-04-28T08:26:20.866Z,11.45
2023-04-28T08:28:47.523Z,9.40
2023-04-28T08:31:14.338Z,12.25
2023-04-28T08:33:44.233Z,12.10
2023-04-28T08:36:14.837Z,16.40
2023-04-28T08:38:42.060Z,11.80
2023-04-28T08:41:08.673Z,11.07
2023-04-28T08:43:36.544Z,9.07
2023-04-28T08:46:07.946Z,10.18
2023-04-28T08:48:45.154Z,12.07
2023-04-28T08:51:25.921Z,12.38
2023-04-28T08:56:27.316Z,11.38
2023-04-28T08:58:54.806Z,12.35
2023-04-28T09:01:21.406Z,13.20
2023-04-28T09:03:49.275Z,12.10
2023-04-28T09:06:16.184Z,10.00
2023-04-28T09:08:42.896Z,10.80
2023-04-28T09:11:13.357Z,10.15
2023-04-28T09:13:41.114Z,11.10
2023-04-28T09:16:08.152Z,10.27
2023-04-28T09:18:34.930Z,12.57
2023-04-28T09:21:07.440Z,9.73
2023-04-28T09:23:35.729Z,11.32
2023-04-28T09:26:10.927Z,8.68
2023-04-28T09:28:37.647Z,8.52
2023-04-28T09:31:04.729Z,14.95
2023-04-28T09:33:31.832Z,15.77
2023-04-28T09:35:58.595Z,10.18
2023-04-28T09:38:25.512Z,11.10
2023-04-28T09:41:03.545Z,22.92
2023-04-28T09:43:35.621Z,30.50
2023-04-28T09:46:05.936Z,20.25
2023-04-28T09:48:36.520Z,13.85
2023-04-28T09:51:06.545Z,9.52
2023-04-28T09:53:34.218Z,10.40
2023-04-28T09:56:05.146Z,10.05
2023-04-28T09:58:35.079Z,10.82
2023-04-28T10:01:02.221Z,11.05
2023-04-28T10:03:32.302Z,8.38
2023-04-28T10:05:59.720Z,9.07
2023-04-28T10:08:27.796Z,8.95
2023-04-28T10:10:55.500Z,9.50
2023-04-28T10:13:23.199Z,9.25
2023-04-28T10:15:51.403Z,8.15
2023-04-28T10:18:18.817Z,9.82
2023-04-28T10:20:49.804Z,7.80
2023-04-28T10:23:54.224Z,9.98
2023-04-28T10:26:23.686Z,9.20
2023-04-28T10:28:51.841Z,10.18
2023-04-28T10:31:21.169Z,9.90
2023-04-28T10:33:48.591Z,10.15
2023-04-28T10:36:54.888Z,8.50
2023-04-28T10:39:21.646Z,8.75
2023-04-28T10:41:48.922Z,8.48
2023-04-28T10:44:31.289Z,7.90
2023-04-28T10:47:02.929Z,9.40
2023-04-28T10:49:54.536Z,9.07
2023-04-28T10:52:33.311Z,11.25
2023-04-28T10:55:36.507Z,8.48
2023-04-28T10:58:15.579Z,8.45
2023-04-28T11:00:45.159Z,6.95
2023-04-28T11:03:46.694Z,8.20
2023-04-28T11:06:40.002Z,7.72
2023-04-28T11:09:13.885Z,8.60
2023-04-28T11:12:00.792Z,8.95
2023-04-28T11:14:33.853Z,14.77
2023-04-28T11:17:13.861Z,10.00
2023-04-28T11:19:46.431Z,8.85
2023-04-28T11:22:22.611Z,15.32
2023-04-28T11:25:01.363Z,14.48
2023-04-28T11:27:30.150Z,12.50
2023-04-28T11:29:57.389Z,10.25
2023-04-28T11:32:35.192Z,15.45
2023-04-28T11:35:04.327Z,17.67
2023-04-28T11:37:30.953Z,17.02
2023-04-28T11:39:57.646Z,17.88
2023-04-28T11:42:27.013Z,17.48
2023-04-28T11:44:55.359Z,18.15
2023-04-28T11:47:34.797Z,18.35
2023-04-28T11:50:03.243Z,18.35
2023-04-28T11:52:30.365Z,19.05
2023-04-28T11:54:59.961Z,18.95
2023-04-28T11:57:27.494Z,21.58
2023-04-28T12:00:19.177Z,21.17
2023-04-28T12:02:46.010Z,20.30
2023-04-28T12:05:12.830Z,19.20
2023-04-28T12:07:44.112Z,19.80
2023-04-28T12:10:19.674Z,18.13
2023-04-28T12:12:51.786Z,16.23
2023-04-28T12:15:21.813Z,18.67
2023-04-28T12:17:50.405Z,17.08
2023-04-28T12:20:39.465Z,15.50
2023-04-28T12:23:07.542Z,16.98
2023-04-28T12:25:43.503Z,18.95
2023-04-28T12:28:10.648Z,16.10
2023-04-28T12:30:40.132Z,14.18
2023-04-28T12:33:22.060Z,15.23
2023-04-28T12:35:49.806Z,19.05
2023-04-28T12:38:16.962Z,13.52
2023-04-28T12:40:43.557Z,15.70
2023-04-28T12:43:10.983Z,13.43
2023-04-28T12:45:38.916Z,17.02
2023-04-28T12:48:08.243Z,13.85
2023-04-28T12:50:34.892Z,16.58
2023-04-28T12:53:01.526Z,15.60
2023-04-28T12:55:29.375Z,15.32
2023-04-28T12:57:56.026Z,15.23
2023-04-28T13:00:24.822Z,14.52
2023-04-28T13:02:53.081Z,13.48
2023-04-28T13:05:19.906Z,14.93
2023-04-28T13:07:47.421Z,15.02
2023-04-28T13:10:14.159Z,15.90
2023-04-28T13:12:41.423Z,19.13
2023-04-28T13:15:09.150Z,15.80
2023-04-28T13:17:35.933Z,17.00
2023-04-28T13:20:03.706Z,16.98
2023-04-28T13:22:30.442Z,15.70
2023-04-28T13:24:57.573Z,17.30
2023-04-28T13:27:25.548Z,21.17
2023-04-28T13:29:52.322Z,22.30
2023-04-28T13:32:18.915Z,19.73
2023-04-28T13:34:45.644Z,14.48
2023-04-28T13:37:12.643Z,16.65
2023-04-28T13:39:39.804Z,14.55
2023-04-28T13:42:07.114Z,18.48
2023-04-28T13:44:33.773Z,11.40
2023-04-28T13:47:00.745Z,17.00
2023-04-28T13:49:27.931Z,10.70
2023-04-28T13:51:54.567Z,14.15
2023-04-28T13:54:21.685Z,11.77
2023-04-28T13:56:48.490Z,12.75
2023-04-28T13:59:15.154Z,12.77
2023-04-28T14:01:41.855Z,21.40
2023-04-28T14:04:08.631Z,11.02
2023-04-28T14:06:38.099Z,12.10
2023-04-28T14:09:04.985Z,11.40
2023-04-28T14:11:31.611Z,15.82
2023-04-28T14:13:58.192Z,8.88
2023-04-28T14:16:24.956Z,11.05
2023-04-28T14:18:51.763Z,9.35
2023-04-28T14:21:18.464Z,10.63
2023-04-28T14:23:45.080Z,9.77
2023-04-28T14:26:11.849Z,10.30
2023-04-28T14:28:38.621Z,9.50
2023-04-28T14:31:11.699Z,8.73
2023-04-28T14:33:38.412Z,11.00
2023-04-28T14:36:05.294Z,11.23
2023-04-28T14:38:32.073Z,9.10
2023-04-28T14:40:58.719Z,12.52
2023-04-28T14:43:25.532Z,12.23
2023-04-28T14:45:52.863Z,10.23
2023-04-28T14:48:20.022Z,12.65
2023-04-28T14:50:46.709Z,11.23
2023-04-28T14:53:13.351Z,9.52
2023-04-28T14:55:39.956Z,10.85
2023-04-28T14:58:06.586Z,7.95
2023-04-28T15:00:33.322Z,6.65
2023-04-28T15:03:00.011Z,6.28
2023-04-28T15:05:27.082Z,3.20
2023-04-28T15:07:53.759Z,5.03
2023-04-28T15:10:20.465Z,3.38
2023-04-28T15:12:48.773Z,3.10
2023-04-28T15:15:15.495Z,3.53
2023-04-28T15:17:42.146Z,2.40
2023-04-28T15:20:12.354Z,3.45
2023-04-28T15:22:39.008Z,2.08
2023-04-28T15:25:06.781Z,1.70
2023-04-28T15:27:33.389Z,2.20
2023-04-28T15:29:59.994Z,2.55
2023-04-28T15:32:29.064Z,5.00
2023-04-28T15:34:57.183Z,2.80
2023-04-28T15:37:42.756Z,1.30
2023-04-28T15:40:16.487Z,1.77
2023-04-28T15:42:48.630Z,1.63
2023-04-28T15:45:16.778Z,2.53
2023-04-28T15:47:45.087Z,5.32
2023-04-28T15:50:12.792Z,7.47
2023-04-28T15:52:46.532Z,4.30
2023-04-28T15:55:15.593Z,4.05
2023-04-28T15:57:43.077Z,6.90
2023-04-28T16:00:11.322Z,5.20
2023-04-28T16:02:38.942Z,4.88
2023-04-28T16:05:06.730Z,6.07
2023-04-28T16:07:40.855Z,5.05
2023-04-28T16:10:14.037Z,5.78
2023-04-28T16:12:44.541Z,6.38
2023-04-28T16:15:13.405Z,5.85
2023-04-28T16:17:41.055Z,5.55
2023-04-28T16:20:09.871Z,6.82
2023-04-28T16:22:39.508Z,6.82
2023-04-28T16:25:07.068Z,6.80
2023-04-28T16:27:35.095Z,6.25
2023-04-28T16:30:02.075Z,6.22
2023-04-28T16:32:28.850Z,6.03
2023-04-28T16:34:58.670Z,6.55
2023-04-28T16:37:26.829Z,7.68
2023-04-28T16:39:53.587Z,5.93
2023-04-28T16:42:22.256Z,5.63
2023-04-28T16:44:52.280Z,7.78
2023-04-28T16:47:19.896Z,5.75
2023-04-28T16:49:46.659Z,9.13
2023-04-28T16:52:13.400Z,5.55
2023-04-28T16:54:40.041Z,5.50
2023-04-28T16:57:06.849Z,6.78
2023-04-28T16:59:33.891Z,4.35
2023-04-28T17:02:03.653Z,4.72
2023-04-28T17:04:30.877Z,5.20
2023-04-28T17:06:58.568Z,3.88
2023-04-28T17:09:26.172Z,3.95
2023-04-28T17:11:53.312Z,3.55
2023-04-28T17:14:21.041Z,3.95
2023-04-28T17:16:47.714Z,4.65
2023-04-28T17:19:14.450Z,3.97
2023-04-28T17:21:41.244Z,3.92
2023-04-28T17:24:08.783Z,7.53
2023-04-28T17:26:36.242Z,3.53
2023-04-28T17:29:04.682Z,7.65
2023-04-28T17:31:31.429Z,3.30
2023-04-28T17:33:59.486Z,5.18
2023-04-28T17:36:26.938Z,5.05
2023-04-28T17:38:54.014Z,4.70
2023-04-28T17:41:21.519Z,3.83
2023-04-28T17:43:48.848Z,4.07
2023-04-28T17:46:15.907Z,3.40
2023-04-28T17:48:43.032Z,3.67
2023-04-28T17:51:09.770Z,3.95
2023-04-28T17:53:37.224Z,3.72
2023-04-28T17:56:04.090Z,5.15
2023-04-28T17:58:32.509Z,3.47
2023-04-28T18:01:06.478Z,3.47
2023-04-28T18:03:38.151Z,4.80
2023-04-28T18:06:07.547Z,2.50
2023-04-28T18:08:36.336Z,2.38
2023-04-28T18:11:03.497Z,2.95
2023-04-28T18:13:30.329Z,3.20
2023-04-28T18:15:56.937Z,8.00
2023-04-28T18:18:23.638Z,2.33
2023-04-28T18:20:56.885Z,2.42
2023-04-28T18:23:23.611Z,3.47
2023-04-28T18:25:50.198Z,3.03
2023-04-28T18:28:16.836Z,4.18
2023-04-28T18:30:43.415Z,16.98
2023-04-28T18:33:10.144Z,41.60
2023-04-28T18:35:37.080Z,52.17
2023-04-28T18:38:04.959Z,29.20
2023-04-28T18:40:38.508Z,7.47
2023-04-28T18:43:06.959Z,12.05
2023-04-28T18:45:36.720Z,11.00
2023-04-28T18:48:04.426Z,12.43
2023-04-28T18:50:32.702Z,10.55
2023-04-28T18:53:04.189Z,11.93
2023-04-28T18:55:33.349Z,8.77
2023-04-28T18:58:01.729Z,13.15
2023-04-28T19:00:28.569Z,8.65
2023-04-28T19:02:55.552Z,37.15
2023-04-28T19:05:22.626Z,46.25
2023-04-28T19:07:49.184Z,13.70
2023-04-28T19:10:15.981Z,3.92
2023-04-28T19:12:42.575Z,5.57
2023-04-28T19:15:09.178Z,7.18
2023-04-28T19:17:35.836Z,6.15
2023-04-28T19:20:03.840Z,6.57
2023-04-28T19:22:43.730Z,4.45
2023-04-28T19:25:11.413Z,5.05
2023-04-28T19:27:40.468Z,5.40
2023-04-28T19:30:10.345Z,4.13
2023-04-28T19:32:37.686Z,7.40
2023-04-28T19:35:04.924Z,2.30
2023-04-28T19:37:36.373Z,4.22
2023-04-28T19:40:07.112Z,3.03
2023-04-28T19:42:35.144Z,2.53
2023-04-28T19:45:02.324Z,3.60
2023-04-28T19:47:33.837Z,3.25
2023-04-28T19:50:00.674Z,3.85
2023-04-28T19:52:27.815Z,8.90
2023-04-28T19:54:54.756Z,4.65
2023-04-28T19:57:21.803Z,8.18
2023-04-28T19:59:49.419Z,5.13
2023-04-28T20:02:17.224Z,6.75
2023-04-28T20:04:44.292Z,4.32
2023-04-28T20:07:11.354Z,4.55
2023-04-28T20:09:38.600Z,5.05
2023-04-28T20:12:07.627Z,9.68
2023-04-28T20:14:34.631Z,4.15
2023-04-28T20:17:03.570Z,4.20
2023-04-28T20:19:30.692Z,3.42
2023-04-28T20:21:57.337Z,7.07
2023-04-28T20:24:24.162Z,6.03
2023-04-28T20:26:51.698Z,3.53
2023-04-28T20:29:18.262Z,5.97
2023-04-28T20:31:44.918Z,5.53
2023-04-28T20:34:14.282Z,5.28
2023-04-28T20:36:42.791Z,3.10
2023-04-28T20:39:10.929Z,4.75
2023-04-28T20:41:38.274Z,4.07
2023-04-28T20:44:06.831Z,5.10
2023-04-28T20:46:35.142Z,3.40
2023-04-28T20:49:02.854Z,4.97
2023-04-28T20:51:35.106Z,4.20
2023-04-28T20:54:03.845Z,4.60
2023-04-28T20:56:30.522Z,3.53
2023-04-28T20:58:57.092Z,5.68
2023-04-28T21:01:23.712Z,3.33
2023-04-28T21:03:50.652Z,5.47
2023-04-28T21:06:17.704Z,3.67
2023-04-28T21:08:45.013Z,4.45
2023-04-28T21:11:13.561Z,4.07
2023-04-28T21:13:42.611Z,4.03
2023-04-28T21:16:20.545Z,4.18
2023-04-28T21:18:49.907Z,4.20
2023-04-28T21:21:16.902Z,4.70
2023-04-28T21:23:44.089Z,3.10
2023-04-28T21:26:10.756Z,3.67
2023-04-28T21:28:37.804Z,5.32
2023-04-28T21:31:04.778Z,8.48
2023-04-28T21:33:32.311Z,7.05
2023-04-28T21:36:05.350Z,5.45
2023-04-28T21:38:31.983Z,3.80
2023-04-28T21:40:58.651Z,5.50
2023-04-28T21:43:25.224Z,3.63
2023-04-28T21:45:52.256Z,6.85
2023-04-28T21:48:18.949Z,6.07
2023-04-28T21:50:45.742Z,3.47
2023-04-28T21:53:12.397Z,4.47
2023-04-28T21:55:39.672Z,9.13
2023-04-28T21:58:06.339Z,7.53
2023-04-28T22:00:40.590Z,3.45
2023-04-28T22:03:07.406Z,6.45
2023-04-28T22:05:34.649Z,2.80
2023-04-28T22:08:01.679Z,5.47
2023-04-28T22:10:28.418Z,4.43
2023-04-28T22:12:55.004Z,3.85
2023-04-28T22:15:21.630Z,2.85
2023-04-28T22:17:48.279Z,7.22
2023-04-28T22:20:15.189Z,3.70
2023-04-28T22:22:42.183Z,5.40
2023-04-28T22:25:09.336Z,3.15
2023-04-28T22:27:35.934Z,5.13
2023-04-28T22:30:02.963Z,6.10
2023-04-28T22:32:29.741Z,2.95
2023-04-28T22:34:56.340Z,3.53
2023-04-28T22:37:22.986Z,2.58
2023-04-28T22:39:50.597Z,2.88
2023-04-28T22:42:17.545Z,3.38
2023-04-28T22:44:44.425Z,6.68
2023-04-28T22:47:11.028Z,3.25
2023-04-28T22:49:37.588Z,4.60
2023-04-28T22:52:05.848Z,2.65
2023-04-28T22:54:32.512Z,3.53
2023-04-28T22:56:59.227Z,6.10
2023-04-28T22:59:26.515Z,2.63
2023-04-28T23:01:54.669Z,4.10
2023-04-28T23:04:21.806Z,5.78
2023-04-28T23:06:48.962Z,4.35
2023-04-28T23:09:15.566Z,2.88
2023-04-28T23:11:42.208Z,4.38
2023-04-28T23:14:08.874Z,4.15
2023-04-28T23:16:36.104Z,2.25
2023-04-28T23:19:03.153Z,3.45
2023-04-28T23:21:29.764Z,3.75
2023-04-28T23:23:56.441Z,9.25
2023-04-28T23:26:24.537Z,3.22
2023-04-28T23:28:51.451Z,4.45
2023-04-28T23:31:18.138Z,3.15
2023-04-28T23:33:44.722Z,3.55
2023-04-28T23:36:12.436Z,4.43
2023-04-28T23:38:39.006Z,3.25
2023-04-28T23:41:06.385Z,3.22
2023-04-28T23:43:33.020Z,5.20
2023-04-28T23:46:00.222Z,2.50
2023-04-28T23:48:26.975Z,3.97
2023-04-28T23:50:54.382Z,3.40
2023-04-28T23:53:21.372Z,3.65
2023-04-28T23:55:48.425Z,3.28
2023-04-28T23:58:15.000Z,4.85
